Latest Weather Observations for Forbes

IDN60801

Issued at 11:35 am EST Saturday 19 April 2014 (issued every 30 minutes, with the page automatically refreshed every 10 minutes)

About weather observations | Map of weather stations | Latest weather observations for NSW | Other Formats
Station Details ID: 065103 Name: FORBES AIRPORT AWS Lat: -33.36 Lon: 147.92 Height: 230.4 m
Data from the previous 72 hours. | See also: Recent months at Forbes
Date/Time
EST
Temp
°C
App
Temp
°C
Dew
Point
Rel
Hum
%
Delta-T
°C
Wind Press
QNH
hPa
Press
MSL
hPa
Rain
since 9 am
mm
Dir
 
Spd
km/h
Gust
km/h
Spd
kts
Gust
kts
19/11:30am 16.8 12.3 6.3 50 5.2 WSW 19 28 10 15 1018.9 - 0.0
19/11:00am 15.6 11.5 6.3 54 4.6 WSW 17 24 9 13 1019.1 1018.6 0.0
19/10:30am 15.0 11.5 7.3 60 3.8 WSW 15 22 8 12 1019.3 - 0.0
19/10:00am 13.9 10.7 7.0 63 3.4 SW 13 20 7 11 1019.5 1019.1 0.0
19/09:30am 13.4 10.2 7.0 65 3.1 WSW 13 20 7 11 1019.6 - 0.0
19/09:00am 12.6 9.1 7.3 70 2.6 SW 15 20 8 11 1019.5 1019.1 0.0
19/08:30am 11.7 8.5 6.8 72 2.4 SW 13 20 7 11 1019.5 - 0.0
19/08:00am 10.7 7.9 6.8 77 1.9 WSW 11 15 6 8 1019.2 1018.7 0.0
19/07:30am 9.2 6.9 7.5 89 0.8 WSW 9 13 5 7 1019.0 - 0.0
19/07:00am 7.0 4.5 6.6 97 0.2 W 9 11 5 6 1019.0 1018.5 0.0
19/06:30am 6.6 4.0 5.9 95 0.3 W 9 13 5 7 1018.7 - 0.0
19/06:00am 7.4 4.8 6.3 93 0.5 W 9 9 5 5 1018.4 1017.9 0.0
19/05:30am 8.1 5.3 7.0 93 0.5 WSW 11 13 6 7 1018.3 - 0.0
19/05:00am 8.6 6.3 7.4 92 0.6 WSW 9 11 5 6 1018.2 1017.7 0.0
19/04:30am 9.0 6.8 7.8 92 0.6 WSW 9 11 5 6 1018.1 - 0.0
19/04:00am 9.4 7.2 8.0 91 0.7 WSW 9 11 5 6 1017.7 1017.3 0.0
19/03:30am 10.1 8.3 7.9 86 1.1 W 7 11 4 6 1017.7 - 0.0
19/03:00am 11.1 8.7 8.7 85 1.2 SSW 11 15 6 8 1017.5 1017.1 0.0
19/02:30am 11.3 8.5 8.7 84 1.3 SSW 13 15 7 8 1017.5 - 0.0
19/02:00am 12.6 9.6 9.2 80 1.7 S 15 20 8 11 1017.3 1016.9 0.0
19/01:30am 13.3 9.8 10.1 81 1.7 SSW 19 24 10 13 1017.3 - 0.0
19/01:00am 13.8 11.2 10.6 81 1.7 SSW 15 20 8 11 1017.4 1017.0 0.0
19/12:30am 14.3 11.3 10.7 79 1.9 SSW 17 22 9 12 1017.2 - 0.0
19/12:00am 14.8 11.7 10.4 75 2.3 SSW 17 26 9 14 1017.1 1016.7 0.0
 
Date/Time
EST
Temp
°C
App
Temp
°C
Dew
Point
Rel
Hum
%
Delta-T
°C
Wind Press
QNH
hPa
Press
MSL
hPa
Rain
since 9 am
mm
Dir
 
Spd
km/h
Gust
km/h
Spd
kts
Gust
kts
18/11:30pm 15.2 12.4 10.0 71 2.7 SSW 15 19 8 10 1016.9 - 0.0
18/11:00pm 16.0 13.2 10.1 68 3.1 SSW 15 19 8 10 1016.9 1016.5 0.0
18/10:30pm 16.1 13.7 10.0 67 3.2 SW 13 17 7 9 1016.9 - 0.0
18/10:00pm 17.6 14.1 10.2 62 4.0 SSW 19 28 10 15 1016.9 1016.5 0.0
18/09:30pm 16.8 14.5 10.6 67 3.3 WSW 13 17 7 9 1016.8 - 0.0
18/09:00pm 16.4 15.2 10.3 67 3.3 W 7 9 4 5 1016.6 1016.2 0.0
18/08:30pm 17.2 15.6 10.1 63 3.8 WSW 9 11 5 6 1016.5 - 0.0
18/08:00pm 17.5 16.2 10.1 62 4.0 SW 7 9 4 5 1016.3 1015.9 0.0
18/07:30pm 18.0 16.8 10.4 61 4.1 WSW 7 9 4 5 1016.2 - 0.0
18/07:00pm 18.3 17.1 10.2 59 4.4 WSW 7 7 4 4 1016.0 1015.6 0.0
18/06:30pm 18.7 17.4 9.8 56 4.8 SW 7 9 4 5 1015.9 - 0.0
18/06:00pm 19.5 17.6 9.1 51 5.5 WSW 9 13 5 7 1015.7 1015.3 0.0
18/05:30pm 20.5 17.3 8.5 46 6.4 SW 15 19 8 10 1015.7 - 0.0
18/05:00pm 21.1 17.2 8.7 45 6.6 SW 19 26 10 14 1015.5 1015.0 0.0
18/04:30pm 21.5 18.2 9.4 46 6.5 SW 17 24 9 13 1015.3 - 0.0
18/04:00pm 21.4 17.6 9.0 45 6.7 SSW 19 28 10 15 1015.1 1014.6 0.0
18/03:30pm 21.9 17.8 8.8 43 7.0 WSW 20 30 11 16 1015.2 - 0.0
18/03:00pm 23.6 19.5 8.5 38 8.1 WSW 20 28 11 15 1015.1 1014.6 0.0
18/02:30pm 23.1 18.7 7.6 37 8.2 W 20 30 11 16 1015.2 - 0.0
18/02:00pm 22.3 18.5 9.1 43 7.1 W 19 32 10 17 1015.6 1015.1 0.0
18/01:30pm 23.3 18.8 8.6 39 7.9 WSW 22 33 12 18 1015.8 - 0.0
18/01:00pm 23.4 20.9 9.8 42 7.5 WSW 13 20 7 11 1016.1 1015.7 0.0
18/12:30pm 22.5 20.6 10.6 47 6.6 WSW 11 19 6 10 1016.7 - 0.0
18/12:00pm 21.7 19.0 10.2 48 6.3 W 15 24 8 13 1017.2 1016.8 0.0
18/11:30am 21.1 20.2 11.2 53 5.5 W 7 19 4 10 1017.7 - 0.0
18/11:00am 20.5 19.1 10.9 54 5.3 W 9 15 5 8 1018.3 1017.8 0.0
18/10:30am 19.4 18.1 11.4 60 4.4 W 9 13 5 7 1018.8 - 0.0
18/10:00am 18.3 17.7 11.8 66 3.6 NW 6 11 3 6 1019.0 1018.5 0.0
18/09:30am 16.2 15.8 11.2 72 2.7 NW 4 9 2 5 1019.2 - 0.0
18/09:00am 14.5 14.2 11.5 82 1.6 NNW 4 7 2 4 1019.3 1018.8 0.0
18/08:30am 12.7 11.7 10.4 86 1.2 NNE 6 7 3 4 1019.2 - 0.0
18/08:00am 11.4 11.5 10.1 92 0.7 CALM 0 0 0 0 1019.3 1018.8 0.0
18/07:30am 9.6 9.5 9.5 99 0.1 CALM 0 2 0 1 1019.1 - 0.0
18/07:00am 7.3 6.7 7.2 99 0.0 CALM 0 0 0 0 1019.0 1018.5 0.0
18/06:30am 6.9 6.2 6.8 99 0.0 CALM 0 0 0 0 1018.8 - 0.0
18/06:00am 6.8 4.9 6.5 98 0.1 NNE 6 7 3 4 1018.6 1018.1 0.0
18/05:30am 7.0 6.3 6.9 99 0.0 CALM 0 0 0 0 1018.5 - 0.0
18/05:00am 7.1 6.4 6.8 98 0.1 CALM 0 0 0 0 1018.5 1018.0 0.0
18/04:30am 7.2 6.5 6.9 98 0.1 CALM 0 0 0 0 1018.6 - 0.0
18/04:00am 7.4 6.7 7.0 97 0.2 CALM 0 0 0 0 1018.4 1017.9 0.0
18/03:30am 7.9 7.3 7.6 98 0.1 CALM 0 0 0 0 1018.5 - 0.0
18/03:00am 7.9 7.3 7.5 97 0.2 CALM 0 0 0 0 1018.6 1018.1 0.0
18/02:30am 8.4 7.9 7.8 96 0.3 CALM 0 0 0 0 1018.8 - 0.0
18/02:00am 8.4 7.9 7.8 96 0.3 CALM 0 0 0 0 1019.1 1018.6 0.0
18/01:30am 9.6 9.4 9.1 97 0.2 CALM 0 0 0 0 1019.1 - 0.0
18/01:00am 9.2 8.9 8.6 96 0.3 CALM 0 0 0 0 1019.4 1019.0 0.0
18/12:30am 9.4 9.1 8.6 95 0.4 CALM 0 0 0 0 1019.3 - 0.0
18/12:00am 9.7 9.4 8.5 92 0.6 CALM 0 0 0 0 1019.5 1019.1 0.0
 
Date/Time
EST
Temp
°C
App
Temp
°C
Dew
Point
Rel
Hum
%
Delta-T
°C
Wind Press
QNH
hPa
Press
MSL
hPa
Rain
since 9 am
mm
Dir
 
Spd
km/h
Gust
km/h
Spd
kts
Gust
kts
17/11:30pm 10.2 10.1 9.4 95 0.4 CALM 0 0 0 0 1019.7 - 0.0
17/11:00pm 10.5 10.4 9.4 93 0.6 CALM 0 0 0 0 1019.8 1019.4 0.0
17/10:30pm 10.9 10.8 9.5 91 0.7 CALM 0 0 0 0 1020.0 - 0.0
17/10:00pm 11.6 11.7 10.2 91 0.7 CALM 0 0 0 0 1020.1 1019.7 0.0
17/09:30pm 11.8 11.9 10.0 89 0.9 CALM 0 0 0 0 1020.1 - 0.0
17/09:00pm 12.3 12.5 10.4 88 1.0 CALM 0 0 0 0 1020.0 1019.6 0.0
17/08:30pm 12.6 12.8 10.5 87 1.1 CALM 0 0 0 0 1019.9 - 0.0
17/08:00pm 13.5 13.5 9.7 78 2.0 CALM 0 0 0 0 1019.8 1019.4 0.0
17/07:30pm 14.0 13.8 10.6 80 1.8 WSW 2 6 1 3 1019.6 - 0.0
17/07:00pm 14.5 14.8 10.9 79 1.9 CALM 0 0 0 0 1019.4 1019.0 0.0
17/06:30pm 15.7 14.4 9.8 68 3.1 SE 7 9 4 5 1019.0 - 0.0
17/06:00pm 17.0 15.5 9.2 60 4.1 SE 7 9 4 5 1019.0 1018.5 0.0
17/05:30pm 18.7 16.9 9.5 55 4.9 SE 9 11 5 6 1018.9 - 0.0
17/05:00pm 20.8 19.1 9.7 49 6.0 S 9 15 5 8 1018.8 1018.3 0.0
17/04:30pm 21.2 19.2 8.8 45 6.6 SSE 9 17 5 9 1018.7 - 0.0
17/04:00pm 21.4 19.3 9.6 47 6.4 S 11 19 6 10 1018.7 1018.2 0.0
17/03:30pm 22.0 19.4 9.5 45 6.8 SSW 13 24 7 13 1018.8 - 0.0
17/03:00pm 22.0 19.6 8.5 42 7.2 S 11 19 6 10 1018.9 1018.4 0.0
17/02:30pm 22.3 20.0 10.5 47 6.5 S 13 20 7 11 1018.9 - 0.0
17/02:00pm 21.9 19.5 10.1 47 6.5 S 13 19 7 10 1019.0 1018.5 0.0
17/01:30pm 22.2 19.8 10.0 46 6.7 WSW 13 19 7 10 1019.3 - 0.0
17/01:00pm 21.2 18.5 10.4 50 5.9 S 15 24 8 13 1019.7 1019.3 0.0
17/12:30pm 20.5 16.4 8.8 47 6.2 S 20 24 11 13 1020.1 - 0.0
17/12:00pm 19.7 17.4 9.0 50 5.7 SSW 11 15 6 8 1020.5 1020.1 0.0
17/11:30am 20.9 19.6 10.1 50 5.9 S 7 15 4 8 1021.0 - 0.0
17/11:00am 19.9 19.9 11.1 57 4.9 S 2 9 1 5 1021.3 1020.9 0.0
17/10:30am 18.8 19.0 11.9 64 3.9 S 2 7 1 4 1021.4 - 0.0
17/10:00am 17.4 17.3 12.1 71 2.9 S 4 7 2 4 1021.4 1021.0 0.0
17/09:30am 16.1 15.6 12.7 80 1.9 SSE 7 11 4 6 1021.6 - 0.0
17/09:00am 14.4 14.5 11.4 82 1.6 SSE 2 7 1 4 1021.7 1021.3 0.0
17/08:30am 13.0 13.4 11.1 88 1.0 CALM 0 0 0 0 1021.5 - 0.0
17/08:00am 11.7 11.9 10.6 93 0.6 CALM 0 0 0 0 1021.3 1020.9 0.0
17/07:30am 9.6 9.5 9.5 99 0.1 CALM 0 0 0 0 1020.8 - 0.0
17/07:00am 8.7 8.4 8.6 99 0.0 CALM 0 0 0 0 1020.4 1020.0 0.0
17/06:30am 8.1 7.6 8.0 99 0.0 CALM 0 0 0 0 1019.8 - 0.0
17/06:00am 7.6 7.0 7.5 99 0.0 CALM 0 0 0 0 1019.4 1019.0 0.0
17/05:30am 7.4 6.7 7.1 98 0.1 CALM 0 0 0 0 1019.4 - 0.0
17/05:00am 7.7 7.1 7.4 98 0.1 CALM 0 0 0 0 1019.3 1018.8 0.0
17/04:30am 7.6 7.0 7.2 97 0.2 CALM 0 0 0 0 1019.1 - 0.0
17/04:00am 8.2 7.7 7.9 98 0.1 CALM 0 0 0 0 1018.9 1018.4 0.0
17/03:30am 8.1 7.6 7.7 97 0.2 CALM 0 0 0 0 1018.8 - 0.0
17/03:00am 8.2 7.6 7.6 96 0.3 CALM 0 0 0 0 1019.0 1018.5 0.0
17/02:30am 8.8 8.4 8.4 97 0.2 CALM 0 0 0 0 1019.1 - 0.0
17/02:00am 9.3 9.0 8.7 96 0.3 CALM 0 0 0 0 1019.2 1018.7 0.0
17/01:30am 9.7 9.5 9.1 96 0.3 CALM 0 0 0 0 1019.4 - 0.0
17/01:00am 10.1 10.0 9.5 96 0.3 CALM 0 0 0 0 1019.4 1019.0 0.0
17/12:30am 9.9 9.7 9.0 94 0.4 CALM 0 0 0 0 1019.3 - 0.0
17/12:00am 10.5 10.5 9.7 95 0.4 CALM 0 0 0 0 1019.4 1019.0 0.0
 
Date/Time
EST
Temp
°C
App
Temp
°C
Dew
Point
Rel
Hum
%
Delta-T
°C
Wind Press
QNH
hPa
Press
MSL
hPa
Rain
since 9 am
mm
Dir
 
Spd
km/h
Gust
km/h
Spd
kts
Gust
kts
16/11:30pm 10.4 10.3 9.3 93 0.6 CALM 0 0 0 0 1019.5 - 0.0
16/11:00pm 11.2 11.3 10.3 94 0.5 CALM 0 0 0 0 1019.6 1019.2 0.0
16/10:30pm 11.5 11.7 10.6 94 0.5 CALM 0 0 0 0 1019.7 - 0.0
16/10:00pm 11.8 12.0 10.7 93 0.6 CALM 0 0 0 0 1019.6 1019.2 0.0
16/09:30pm 11.8 12.0 10.7 93 0.6 CALM 0 0 0 0 1019.7 - 0.0
16/09:00pm 11.6 10.9 10.2 91 0.7 NNE 4 6 2 3 1019.4 1019.0 0.0
16/08:30pm 13.1 12.3 11.2 88 1.0 S 6 7 3 4 1019.2 - 0.0
16/08:00pm 13.7 14.0 10.9 83 1.5 CALM 0 0 0 0 1019.0 1018.5 0.0
16/07:30pm 14.4 14.8 11.2 81 1.7 CALM 0 0 0 0 1018.8 - 0.0
16/07:00pm 15.4 16.0 12.0 80 1.9 CALM 0 0 0 0 1018.7 1018.2 0.0
16/06:30pm 16.6 15.9 11.3 71 2.9 SSE 6 7 3 4 1018.5 - 0.0
16/06:00pm 17.4 16.3 10.5 64 3.7 SSE 7 9 4 5 1018.3 1017.8 0.0
16/05:30pm 18.9 17.8 10.5 58 4.6 SSE 7 9 4 5 1018.1 - 0.0
16/05:00pm 20.7 18.3 9.9 50 5.9 SSE 13 15 7 8 1018.0 1017.5 0.0
16/04:30pm 21.6 19.9 9.8 47 6.4 SSE 9 15 5 8 1017.6 - 0.0
16/04:00pm 21.6 19.8 9.5 46 6.6 SE 9 13 5 7 1017.6 1017.2 0.0
16/03:30pm 21.2 19.1 9.8 48 6.2 SSE 11 19 6 10 1017.7 - 0.0
16/03:00pm 21.8 21.7 10.9 50 6.1 ESE 2 7 1 4 1017.9 1017.4 0.0
16/02:30pm 21.1 19.1 10.3 50 5.9 SSE 11 19 6 10 1018.0 - 0.0
16/02:00pm 21.7 21.3 11.1 51 5.9 SW 4 11 2 6 1018.0 1017.5 0.0
16/01:30pm 20.6 18.6 10.1 51 5.7 SSE 11 17 6 9 1018.4 - 0.0
16/01:00pm 21.1 19.4 11.2 53 5.5 SSE 11 19 6 10 1018.9 1018.4 0.0
16/12:30pm 20.8 19.1 11.2 54 5.3 SSW 11 17 6 9 1019.3 - 0.0
16/12:00pm 20.6 20.0 10.4 52 5.6 SSW 4 11 2 6 1019.8 1019.4 0.0

Other Formats:

Comma delimited format used in spreadsheet applications
http://www.bom.gov.au/fwo/IDN60801/IDN60801.94715.axf

JavaScript Object Notation format (JSON) in row-major order
http://www.bom.gov.au/fwo/IDN60801/IDN60801.94715.json